sensor_id;sensor_type;location;lat;lon;timestamp;temperature;humidity
22319;DHT22;11327;52.334;9.506;2023-02-02T00:00:34;5.20;99.90
22319;DHT22;11327;52.334;9.506;2023-02-02T00:03:54;5.10;99.90
22319;DHT22;11327;52.334;9.506;2023-02-02T00:07:16;5.10;99.90
22319;DHT22;11327;52.334;9.506;2023-02-02T00:10:37;5.10;99.90
22319;DHT22;11327;52.334;9.506;2023-02-02T00:13:57;5.10;99.90
22319;DHT22;11327;52.334;9.506;2023-02-02T00:17:20;5.00;99.90
22319;DHT22;11327;52.334;9.506;2023-02-02T00:20:40;5.10;99.90
22319;DHT22;11327;52.334;9.506;2023-02-02T00:24:01;5.00;99.90
22319;DHT22;11327;52.334;9.506;2023-02-02T00:27:22;5.00;99.90
22319;DHT22;11327;52.334;9.506;2023-02-02T00:30:42;5.10;99.90
22319;DHT22;11327;52.334;9.506;2023-02-02T00:34:04;5.10;99.90
22319;DHT22;11327;52.334;9.506;2023-02-02T00:37:25;5.00;99.90
22319;DHT22;11327;52.334;9.506;2023-02-02T00:40:46;5.00;99.90
22319;DHT22;11327;52.334;9.506;2023-02-02T00:44:07;5.00;99.90
22319;DHT22;11327;52.334;9.506;2023-02-02T00:47:47;5.10;99.90
22319;DHT22;11327;52.334;9.506;2023-02-02T00:51:08;5.00;99.90
22319;DHT22;11327;52.334;9.506;2023-02-02T00:54:29;5.00;99.90
22319;DHT22;11327;52.334;9.506;2023-02-02T00:57:50;5.00;99.90
22319;DHT22;11327;52.334;9.506;2023-02-02T01:01:18;5.00;99.90
22319;DHT22;11327;52.334;9.506;2023-02-02T01:04:40;5.00;99.90
22319;DHT22;11327;52.334;9.506;2023-02-02T01:08:01;5.00;99.90
22319;DHT22;11327;52.334;9.506;2023-02-02T01:11:22;5.00;99.90
22319;DHT22;11327;52.334;9.506;2023-02-02T01:14:45;5.00;99.90
22319;DHT22;11327;52.334;9.506;2023-02-02T01:18:05;5.00;99.90
22319;DHT22;11327;52.334;9.506;2023-02-02T01:21:26;5.00;99.90
22319;DHT22;11327;52.334;9.506;2023-02-02T01:24:47;5.00;99.90
22319;DHT22;11327;52.334;9.506;2023-02-02T01:28:08;5.00;99.90
22319;DHT22;11327;52.334;9.506;2023-02-02T01:31:28;5.00;99.90
22319;DHT22;11327;52.334;9.506;2023-02-02T01:34:49;5.00;99.90
22319;DHT22;11327;52.334;9.506;2023-02-02T01:38:10;4.90;99.90
22319;DHT22;11327;52.334;9.506;2023-02-02T01:41:30;5.00;99.90
22319;DHT22;11327;52.334;9.506;2023-02-02T01:45:02;4.90;99.90
22319;DHT22;11327;52.334;9.506;2023-02-02T01:48:31;4.90;99.90
22319;DHT22;11327;52.334;9.506;2023-02-02T01:51:55;5.00;99.90
22319;DHT22;11327;52.334;9.506;2023-02-02T01:55:19;4.90;99.90
22319;DHT22;11327;52.334;9.506;2023-02-02T01:58:41;4.90;99.90
22319;DHT22;11327;52.334;9.506;2023-02-02T02:02:03;4.90;99.90
22319;DHT22;11327;52.334;9.506;2023-02-02T02:05:30;4.80;99.90
22319;DHT22;11327;52.334;9.506;2023-02-02T02:08:55;4.80;99.90
22319;DHT22;11327;52.334;9.506;2023-02-02T02:12:16;4.80;99.90
22319;DHT22;11327;52.334;9.506;2023-02-02T02:15:44;4.80;99.90
22319;DHT22;11327;52.334;9.506;2023-02-02T02:35:04;4.70;99.90
22319;DHT22;11327;52.334;9.506;2023-02-02T02:38:37;4.70;99.90
22319;DHT22;11327;52.334;9.506;2023-02-02T02:42:01;4.70;99.90
22319;DHT22;11327;52.334;9.506;2023-02-02T02:45:24;4.70;99.90
22319;DHT22;11327;52.334;9.506;2023-02-02T02:48:45;4.70;99.90
22319;DHT22;11327;52.334;9.506;2023-02-02T02:52:07;4.70;99.90
22319;DHT22;11327;52.334;9.506;2023-02-02T02:55:32;4.70;99.90
22319;DHT22;11327;52.334;9.506;2023-02-02T02:58:57;4.70;99.90
22319;DHT22;11327;52.334;9.506;2023-02-02T03:02:37;4.70;99.90
22319;DHT22;11327;52.334;9.506;2023-02-02T03:09:41;4.60;99.90
22319;DHT22;11327;52.334;9.506;2023-02-02T03:13:08;4.60;99.90
22319;DHT22;11327;52.334;9.506;2023-02-02T03:16:30;4.60;99.90
22319;DHT22;11327;52.334;9.506;2023-02-02T03:19:50;4.60;99.90
22319;DHT22;11327;52.334;9.506;2023-02-02T03:23:11;4.60;99.90
22319;DHT22;11327;52.334;9.506;2023-02-02T03:26:32;4.70;99.90
22319;DHT22;11327;52.334;9.506;2023-02-02T03:29:54;4.60;99.90
22319;DHT22;11327;52.334;9.506;2023-02-02T03:33:15;4.60;99.90
22319;DHT22;11327;52.334;9.506;2023-02-02T03:36:36;4.60;99.90
22319;DHT22;11327;52.334;9.506;2023-02-02T03:39:56;4.60;99.90
22319;DHT22;11327;52.334;9.506;2023-02-02T03:43:21;4.60;99.90
22319;DHT22;11327;52.334;9.506;2023-02-02T03:46:42;4.50;99.90
22319;DHT22;11327;52.334;9.506;2023-02-02T03:50:04;4.60;99.90
22319;DHT22;11327;52.334;9.506;2023-02-02T03:53:24;4.50;99.90
22319;DHT22;11327;52.334;9.506;2023-02-02T03:56:45;4.50;99.90
22319;DHT22;11327;52.334;9.506;2023-02-02T04:00:07;4.50;99.90
22319;DHT22;11327;52.334;9.506;2023-02-02T04:03:28;4.50;99.90
22319;DHT22;11327;52.334;9.506;2023-02-02T04:06:48;4.40;99.90
22319;DHT22;11327;52.334;9.506;2023-02-02T04:10:10;4.50;99.90
22319;DHT22;11327;52.334;9.506;2023-02-02T04:13:30;4.50;99.90
22319;DHT22;11327;52.334;9.506;2023-02-02T04:16:51;4.50;99.90
22319;DHT22;11327;52.334;9.506;2023-02-02T04:20:12;4.50;99.90
22319;DHT22;11327;52.334;9.506;2023-02-02T04:23:33;4.50;99.90
22319;DHT22;11327;52.334;9.506;2023-02-02T04:26:54;4.50;99.90
22319;DHT22;11327;52.334;9.506;2023-02-02T04:30:15;4.60;99.90
22319;DHT22;11327;52.334;9.506;2023-02-02T04:33:36;4.50;99.90
22319;DHT22;11327;52.334;9.506;2023-02-02T04:36:57;4.50;99.90
22319;DHT22;11327;52.334;9.506;2023-02-02T04:40:18;4.50;99.90
22319;DHT22;11327;52.334;9.506;2023-02-02T04:43:39;4.50;99.90
22319;DHT22;11327;52.334;9.506;2023-02-02T04:46:59;4.50;99.90
22319;DHT22;11327;52.334;9.506;2023-02-02T04:50:20;4.50;99.90
22319;DHT22;11327;52.334;9.506;2023-02-02T04:53:41;4.50;99.90
22319;DHT22;11327;52.334;9.506;2023-02-02T04:57:02;4.50;99.90
22319;DHT22;11327;52.334;9.506;2023-02-02T05:00:23;4.40;99.90
22319;DHT22;11327;52.334;9.506;2023-02-02T05:03:45;4.40;99.90
22319;DHT22;11327;52.334;9.506;2023-02-02T05:07:06;4.40;99.90
22319;DHT22;11327;52.334;9.506;2023-02-02T05:10:27;4.40;99.90
22319;DHT22;11327;52.334;9.506;2023-02-02T05:13:50;4.40;99.90
22319;DHT22;11327;52.334;9.506;2023-02-02T05:17:11;4.40;99.90
22319;DHT22;11327;52.334;9.506;2023-02-02T05:20:32;4.30;99.90
22319;DHT22;11327;52.334;9.506;2023-02-02T05:23:53;4.30;99.90
22319;DHT22;11327;52.334;9.506;2023-02-02T05:27:13;4.30;99.90
22319;DHT22;11327;52.334;9.506;2023-02-02T05:30:34;4.30;99.90
22319;DHT22;11327;52.334;9.506;2023-02-02T05:33:55;4.30;99.90
22319;DHT22;11327;52.334;9.506;2023-02-02T05:37:15;4.30;99.90
22319;DHT22;11327;52.334;9.506;2023-02-02T05:40:36;4.40;99.90
22319;DHT22;11327;52.334;9.506;2023-02-02T05:44:00;4.40;99.90
22319;DHT22;11327;52.334;9.506;2023-02-02T05:47:21;4.30;99.90
22319;DHT22;11327;52.334;9.506;2023-02-02T05:50:45;4.40;99.90
22319;DHT22;11327;52.334;9.506;2023-02-02T05:54:08;4.40;99.90
22319;DHT22;11327;52.334;9.506;2023-02-02T05:57:29;4.40;99.90
22319;DHT22;11327;52.334;9.506;2023-02-02T06:00:50;4.50;99.90
22319;DHT22;11327;52.334;9.506;2023-02-02T06:04:11;4.50;99.90
22319;DHT22;11327;52.334;9.506;2023-02-02T06:07:32;4.50;99.90
22319;DHT22;11327;52.334;9.506;2023-02-02T06:10:53;4.50;99.90
22319;DHT22;11327;52.334;9.506;2023-02-02T06:14:14;4.50;99.90
22319;DHT22;11327;52.334;9.506;2023-02-02T06:17:34;4.60;99.90
22319;DHT22;11327;52.334;9.506;2023-02-02T06:21:02;4.60;99.90
22319;DHT22;11327;52.334;9.506;2023-02-02T06:24:20;4.60;99.90
22319;DHT22;11327;52.334;9.506;2023-02-02T06:27:40;4.60;99.90
22319;DHT22;11327;52.334;9.506;2023-02-02T06:31:06;4.60;99.90
22319;DHT22;11327;52.334;9.506;2023-02-02T06:34:27;4.60;99.90
22319;DHT22;11327;52.334;9.506;2023-02-02T06:37:48;4.60;99.90
22319;DHT22;11327;52.334;9.506;2023-02-02T06:41:08;4.60;99.90
22319;DHT22;11327;52.334;9.506;2023-02-02T06:44:29;4.60;99.90
22319;DHT22;11327;52.334;9.506;2023-02-02T06:47:51;4.70;99.90
22319;DHT22;11327;52.334;9.506;2023-02-02T06:51:12;4.70;99.90
22319;DHT22;11327;52.334;9.506;2023-02-02T06:54:33;4.80;99.90
22319;DHT22;11327;52.334;9.506;2023-02-02T06:57:58;4.80;99.90
22319;DHT22;11327;52.334;9.506;2023-02-02T07:01:19;4.80;99.90
22319;DHT22;11327;52.334;9.506;2023-02-02T07:04:40;4.80;99.90
22319;DHT22;11327;52.334;9.506;2023-02-02T07:08:00;4.80;99.90
22319;DHT22;11327;52.334;9.506;2023-02-02T07:11:21;4.80;99.90
22319;DHT22;11327;52.334;9.506;2023-02-02T07:14:42;4.80;99.90
22319;DHT22;11327;52.334;9.506;2023-02-02T07:18:03;4.90;99.90
22319;DHT22;11327;52.334;9.506;2023-02-02T07:21:25;4.90;99.90
22319;DHT22;11327;52.334;9.506;2023-02-02T07:24:51;4.90;99.90
22319;DHT22;11327;52.334;9.506;2023-02-02T07:28:12;4.90;99.90
22319;DHT22;11327;52.334;9.506;2023-02-02T07:31:32;4.90;99.90
22319;DHT22;11327;52.334;9.506;2023-02-02T07:34:53;4.90;99.90
22319;DHT22;11327;52.334;9.506;2023-02-02T07:38:14;5.00;99.90
22319;DHT22;11327;52.334;9.506;2023-02-02T07:41:35;5.00;99.90
22319;DHT22;11327;52.334;9.506;2023-02-02T07:44:56;5.00;99.90
22319;DHT22;11327;52.334;9.506;2023-02-02T07:48:17;5.00;99.90
22319;DHT22;11327;52.334;9.506;2023-02-02T07:51:38;5.00;99.90
22319;DHT22;11327;52.334;9.506;2023-02-02T07:54:59;5.10;99.90
22319;DHT22;11327;52.334;9.506;2023-02-02T07:58:19;5.10;99.90
22319;DHT22;11327;52.334;9.506;2023-02-02T08:01:40;5.20;99.90
22319;DHT22;11327;52.334;9.506;2023-02-02T08:05:01;5.20;99.90
22319;DHT22;11327;52.334;9.506;2023-02-02T08:08:22;5.20;99.90
22319;DHT22;11327;52.334;9.506;2023-02-02T08:11:43;5.30;99.90
22319;DHT22;11327;52.334;9.506;2023-02-02T08:15:04;5.30;99.90
22319;DHT22;11327;52.334;9.506;2023-02-02T08:18:25;5.30;99.90
22319;DHT22;11327;52.334;9.506;2023-02-02T08:21:46;5.30;99.90
22319;DHT22;11327;52.334;9.506;2023-02-02T08:25:07;5.30;99.90
22319;DHT22;11327;52.334;9.506;2023-02-02T08:28:28;5.30;99.90
22319;DHT22;11327;52.334;9.506;2023-02-02T08:31:49;5.30;99.90
22319;DHT22;11327;52.334;9.506;2023-02-02T08:35:09;5.30;99.90
22319;DHT22;11327;52.334;9.506;2023-02-02T08:38:30;5.30;99.90
22319;DHT22;11327;52.334;9.506;2023-02-02T08:41:54;5.30;99.90
22319;DHT22;11327;52.334;9.506;2023-02-02T08:45:14;5.30;99.90
22319;DHT22;11327;52.334;9.506;2023-02-02T08:48:35;5.40;99.90
22319;DHT22;11327;52.334;9.506;2023-02-02T08:51:56;5.30;99.90
22319;DHT22;11327;52.334;9.506;2023-02-02T08:55:17;5.30;99.90
22319;DHT22;11327;52.334;9.506;2023-02-02T08:58:38;5.30;99.90
22319;DHT22;11327;52.334;9.506;2023-02-02T09:01:59;5.40;99.90
22319;DHT22;11327;52.334;9.506;2023-02-02T09:05:19;5.40;99.90
22319;DHT22;11327;52.334;9.506;2023-02-02T09:08:40;5.40;99.90
22319;DHT22;11327;52.334;9.506;2023-02-02T09:12:01;5.40;99.90
22319;DHT22;11327;52.334;9.506;2023-02-02T09:15:22;5.40;99.90
22319;DHT22;11327;52.334;9.506;2023-02-02T09:18:44;5.50;99.90
22319;DHT22;11327;52.334;9.506;2023-02-02T09:22:04;5.50;99.90
22319;DHT22;11327;52.334;9.506;2023-02-02T09:25:25;5.50;99.90
22319;DHT22;11327;52.334;9.506;2023-02-02T09:28:56;5.40;99.90
22319;DHT22;11327;52.334;9.506;2023-02-02T09:32:17;5.50;99.90
22319;DHT22;11327;52.334;9.506;2023-02-02T09:35:38;5.50;99.90
22319;DHT22;11327;52.334;9.506;2023-02-02T09:38:59;5.60;99.90
22319;DHT22;11327;52.334;9.506;2023-02-02T09:42:38;5.60;99.90
22319;DHT22;11327;52.334;9.506;2023-02-02T09:53:22;5.80;99.90
22319;DHT22;11327;52.334;9.506;2023-02-02T09:56:47;5.80;99.90
22319;DHT22;11327;52.334;9.506;2023-02-02T10:00:19;5.70;99.90
22319;DHT22;11327;52.334;9.506;2023-02-02T10:04:02;5.80;99.90
22319;DHT22;11327;52.334;9.506;2023-02-02T10:07:32;5.90;99.90
22319;DHT22;11327;52.334;9.506;2023-02-02T10:10:53;5.90;99.90
22319;DHT22;11327;52.334;9.506;2023-02-02T10:14:30;6.00;99.90
22319;DHT22;11327;52.334;9.506;2023-02-02T10:17:57;6.10;99.90
22319;DHT22;11327;52.334;9.506;2023-02-02T10:21:37;6.00;99.90
22319;DHT22;11327;52.334;9.506;2023-02-02T10:24:56;6.00;99.90
22319;DHT22;11327;52.334;9.506;2023-02-02T10:28:18;6.00;99.90
22319;DHT22;11327;52.334;9.506;2023-02-02T10:35:50;6.10;99.90
22319;DHT22;11327;52.334;9.506;2023-02-02T10:39:22;6.10;99.90
22319;DHT22;11327;52.334;9.506;2023-02-02T10:46:58;6.20;99.90
22319;DHT22;11327;52.334;9.506;2023-02-02T10:50:20;6.10;99.90
22319;DHT22;11327;52.334;9.506;2023-02-02T10:53:44;6.20;99.90
22319;DHT22;11327;52.334;9.506;2023-02-02T10:57:08;6.20;99.90
22319;DHT22;11327;52.334;9.506;2023-02-02T11:04:08;6.40;99.90
22319;DHT22;11327;52.334;9.506;2023-02-02T11:07:49;6.60;99.90
22319;DHT22;11327;52.334;9.506;2023-02-02T11:11:28;6.80;99.90
22319;DHT22;11327;52.334;9.506;2023-02-02T11:14:58;6.90;99.90
22319;DHT22;11327;52.334;9.506;2023-02-02T11:18:29;6.90;99.90
22319;DHT22;11327;52.334;9.506;2023-02-02T11:21:53;6.90;99.90
22319;DHT22;11327;52.334;9.506;2023-02-02T11:25:29;6.90;99.90
22319;DHT22;11327;52.334;9.506;2023-02-02T11:28:53;7.00;99.90
22319;DHT22;11327;52.334;9.506;2023-02-02T11:32:24;7.00;99.90
22319;DHT22;11327;52.334;9.506;2023-02-02T11:35:57;7.10;99.90
22319;DHT22;11327;52.334;9.506;2023-02-02T11:39:19;7.10;99.90
22319;DHT22;11327;52.334;9.506;2023-02-02T11:42:45;7.20;99.90
22319;DHT22;11327;52.334;9.506;2023-02-02T11:46:19;7.10;99.90
22319;DHT22;11327;52.334;9.506;2023-02-02T11:49:42;7.10;99.90
22319;DHT22;11327;52.334;9.506;2023-02-02T11:53:03;7.00;99.90
22319;DHT22;11327;52.334;9.506;2023-02-02T11:56:24;7.00;99.90
22319;DHT22;11327;52.334;9.506;2023-02-02T12:00:04;7.10;99.90
22319;DHT22;11327;52.334;9.506;2023-02-02T12:03:25;7.00;99.90
22319;DHT22;11327;52.334;9.506;2023-02-02T12:06:43;7.00;99.90
22319;DHT22;11327;52.334;9.506;2023-02-02T12:10:35;7.00;99.90
22319;DHT22;11327;52.334;9.506;2023-02-02T12:17:43;7.00;99.90
22319;DHT22;11327;52.334;9.506;2023-02-02T12:21:06;7.00;99.90
22319;DHT22;11327;52.334;9.506;2023-02-02T12:24:33;7.00;99.90
22319;DHT22;11327;52.334;9.506;2023-02-02T12:28:04;7.10;99.90
22319;DHT22;11327;52.334;9.506;2023-02-02T12:35:47;7.10;99.90
22319;DHT22;11327;52.334;9.506;2023-02-02T12:39:27;7.10;99.90
22319;DHT22;11327;52.334;9.506;2023-02-02T12:50:02;7.20;99.90
22319;DHT22;11327;52.334;9.506;2023-02-02T12:57:36;7.10;99.90
22319;DHT22;11327;52.334;9.506;2023-02-02T13:01:03;7.20;99.90
22319;DHT22;11327;52.334;9.506;2023-02-02T13:08:01;7.10;99.90
22319;DHT22;11327;52.334;9.506;2023-02-02T13:11:58;7.10;99.90
22319;DHT22;11327;52.334;9.506;2023-02-02T13:15:20;7.10;99.90
22319;DHT22;11327;52.334;9.506;2023-02-02T13:18:49;7.20;99.90
22319;DHT22;11327;52.334;9.506;2023-02-02T13:22:09;7.20;99.90
22319;DHT22;11327;52.334;9.506;2023-02-02T13:25:43;7.20;99.90
22319;DHT22;11327;52.334;9.506;2023-02-02T13:29:21;7.00;99.90
22319;DHT22;11327;52.334;9.506;2023-02-02T13:32:43;7.20;99.90
22319;DHT22;11327;52.334;9.506;2023-02-02T13:36:17;7.20;99.90
22319;DHT22;11327;52.334;9.506;2023-02-02T13:39:52;7.20;99.90
22319;DHT22;11327;52.334;9.506;2023-02-02T13:43:32;7.20;99.90
22319;DHT22;11327;52.334;9.506;2023-02-02T13:46:56;7.30;99.90
22319;DHT22;11327;52.334;9.506;2023-02-02T13:50:19;7.40;99.90
22319;DHT22;11327;52.334;9.506;2023-02-02T14:01:17;7.20;99.90
22319;DHT22;11327;52.334;9.506;2023-02-02T14:04:38;7.10;99.90
22319;DHT22;11327;52.334;9.506;2023-02-02T14:08:04;7.20;99.90
22319;DHT22;11327;52.334;9.506;2023-02-02T14:11:32;7.20;99.90
22319;DHT22;11327;52.334;9.506;2023-02-02T14:14:53;7.30;99.90
22319;DHT22;11327;52.334;9.506;2023-02-02T14:18:42;7.30;99.90
22319;DHT22;11327;52.334;9.506;2023-02-02T14:28:52;7.20;99.90
22319;DHT22;11327;52.334;9.506;2023-02-02T14:32:29;7.10;99.90
22319;DHT22;11327;52.334;9.506;2023-02-02T14:35:57;7.10;99.90
22319;DHT22;11327;52.334;9.506;2023-02-02T14:39:19;7.10;99.90
22319;DHT22;11327;52.334;9.506;2023-02-02T14:46:44;7.10;99.90
22319;DHT22;11327;52.334;9.506;2023-02-02T14:50:15;7.10;99.90
22319;DHT22;11327;52.334;9.506;2023-02-02T14:53:38;7.10;99.90
22319;DHT22;11327;52.334;9.506;2023-02-02T14:57:03;7.10;99.90
22319;DHT22;11327;52.334;9.506;2023-02-02T15:00:30;7.00;99.90
22319;DHT22;11327;52.334;9.506;2023-02-02T15:04:22;7.00;99.90
22319;DHT22;11327;52.334;9.506;2023-02-02T15:07:49;7.00;99.90
22319;DHT22;11327;52.334;9.506;2023-02-02T15:11:06;7.00;99.90
22319;DHT22;11327;52.334;9.506;2023-02-02T15:15:01;6.90;99.90
22319;DHT22;11327;52.334;9.506;2023-02-02T15:18:25;6.90;99.90
22319;DHT22;11327;52.334;9.506;2023-02-02T15:21:47;6.80;99.90
22319;DHT22;11327;52.334;9.506;2023-02-02T15:28:58;6.80;99.90
22319;DHT22;11327;52.334;9.506;2023-02-02T15:32:22;6.70;99.90
22319;DHT22;11327;52.334;9.506;2023-02-02T15:35:46;6.80;99.90
22319;DHT22;11327;52.334;9.506;2023-02-02T15:39:11;6.70;99.90
22319;DHT22;11327;52.334;9.506;2023-02-02T15:42:39;6.70;99.90
22319;DHT22;11327;52.334;9.506;2023-02-02T15:46:17;6.60;99.90
22319;DHT22;11327;52.334;9.506;2023-02-02T15:49:40;6.60;99.90
22319;DHT22;11327;52.334;9.506;2023-02-02T15:53:02;6.50;99.90
22319;DHT22;11327;52.334;9.506;2023-02-02T15:56:30;6.50;99.90
22319;DHT22;11327;52.334;9.506;2023-02-02T15:59:49;6.50;99.90
22319;DHT22;11327;52.334;9.506;2023-02-02T16:03:18;6.50;99.90
22319;DHT22;11327;52.334;9.506;2023-02-02T16:06:40;6.40;99.90
22319;DHT22;11327;52.334;9.506;2023-02-02T16:10:06;6.40;99.90
22319;DHT22;11327;52.334;9.506;2023-02-02T16:13:27;6.40;99.90
22319;DHT22;11327;52.334;9.506;2023-02-02T16:16:49;6.40;99.90
22319;DHT22;11327;52.334;9.506;2023-02-02T16:20:14;6.30;99.90
22319;DHT22;11327;52.334;9.506;2023-02-02T16:23:38;6.30;99.90
22319;DHT22;11327;52.334;9.506;2023-02-02T16:27:00;6.30;99.90
22319;DHT22;11327;52.334;9.506;2023-02-02T16:30:28;6.30;99.90
22319;DHT22;11327;52.334;9.506;2023-02-02T16:33:49;6.20;99.90
22319;DHT22;11327;52.334;9.506;2023-02-02T16:37:16;6.10;99.90
22319;DHT22;11327;52.334;9.506;2023-02-02T16:40:38;6.00;99.90
22319;DHT22;11327;52.334;9.506;2023-02-02T16:44:34;6.00;99.90
22319;DHT22;11327;52.334;9.506;2023-02-02T16:47:52;5.90;99.90
22319;DHT22;11327;52.334;9.506;2023-02-02T16:54:53;5.80;99.90
22319;DHT22;11327;52.334;9.506;2023-02-02T16:58:17;5.80;99.90
22319;DHT22;11327;52.334;9.506;2023-02-02T17:01:45;5.70;99.90
22319;DHT22;11327;52.334;9.506;2023-02-02T17:05:28;5.60;99.90
22319;DHT22;11327;52.334;9.506;2023-02-02T17:08:47;5.70;99.90
22319;DHT22;11327;52.334;9.506;2023-02-02T17:15:41;5.60;99.90
22319;DHT22;11327;52.334;9.506;2023-02-02T17:19:02;5.50;99.90
22319;DHT22;11327;52.334;9.506;2023-02-02T17:22:23;5.50;99.90
22319;DHT22;11327;52.334;9.506;2023-02-02T17:25:45;5.50;99.90
22319;DHT22;11327;52.334;9.506;2023-02-02T17:29:11;5.40;99.90
22319;DHT22;11327;52.334;9.506;2023-02-02T17:32:32;5.40;99.90
22319;DHT22;11327;52.334;9.506;2023-02-02T17:35:53;5.40;99.90
22319;DHT22;11327;52.334;9.506;2023-02-02T17:39:14;5.40;99.90
22319;DHT22;11327;52.334;9.506;2023-02-02T17:42:34;5.40;99.90
22319;DHT22;11327;52.334;9.506;2023-02-02T17:45:55;5.30;99.90
22319;DHT22;11327;52.334;9.506;2023-02-02T17:49:16;5.30;99.90
22319;DHT22;11327;52.334;9.506;2023-02-02T17:52:37;5.30;99.90
22319;DHT22;11327;52.334;9.506;2023-02-02T17:55:58;5.30;99.90
22319;DHT22;11327;52.334;9.506;2023-02-02T17:59:19;5.30;99.90
22319;DHT22;11327;52.334;9.506;2023-02-02T18:02:39;5.30;99.90
22319;DHT22;11327;52.334;9.506;2023-02-02T18:06:01;5.20;99.90
22319;DHT22;11327;52.334;9.506;2023-02-02T18:09:21;5.20;99.90
22319;DHT22;11327;52.334;9.506;2023-02-02T18:12:42;5.20;99.90
22319;DHT22;11327;52.334;9.506;2023-02-02T18:16:04;5.20;99.90
22319;DHT22;11327;52.334;9.506;2023-02-02T18:19:25;5.20;99.90
22319;DHT22;11327;52.334;9.506;2023-02-02T18:22:46;5.20;99.90
22319;DHT22;11327;52.334;9.506;2023-02-02T18:26:16;5.20;99.90
22319;DHT22;11327;52.334;9.506;2023-02-02T18:29:38;5.10;99.90
22319;DHT22;11327;52.334;9.506;2023-02-02T18:32:58;5.10;99.90
22319;DHT22;11327;52.334;9.506;2023-02-02T18:36:20;5.20;99.90
22319;DHT22;11327;52.334;9.506;2023-02-02T18:39:41;5.30;99.90
22319;DHT22;11327;52.334;9.506;2023-02-02T18:43:01;5.30;99.90
22319;DHT22;11327;52.334;9.506;2023-02-02T18:46:22;5.30;99.90
22319;DHT22;11327;52.334;9.506;2023-02-02T18:49:43;5.20;99.90
22319;DHT22;11327;52.334;9.506;2023-02-02T18:53:05;5.20;99.90
22319;DHT22;11327;52.334;9.506;2023-02-02T18:56:27;5.20;99.90
22319;DHT22;11327;52.334;9.506;2023-02-02T18:59:48;5.20;99.90
22319;DHT22;11327;52.334;9.506;2023-02-02T19:03:09;5.20;99.90
22319;DHT22;11327;52.334;9.506;2023-02-02T19:06:29;5.20;99.90
22319;DHT22;11327;52.334;9.506;2023-02-02T19:10:09;5.10;99.90
22319;DHT22;11327;52.334;9.506;2023-02-02T19:13:30;5.20;99.90
22319;DHT22;11327;52.334;9.506;2023-02-02T19:16:52;5.10;99.90
22319;DHT22;11327;52.334;9.506;2023-02-02T19:23:44;5.00;99.90
22319;DHT22;11327;52.334;9.506;2023-02-02T19:27:23;5.00;99.90
22319;DHT22;11327;52.334;9.506;2023-02-02T19:30:46;5.00;99.90
22319;DHT22;11327;52.334;9.506;2023-02-02T19:34:12;5.10;99.90
22319;DHT22;11327;52.334;9.506;2023-02-02T19:37:37;5.10;99.90
22319;DHT22;11327;52.334;9.506;2023-02-02T19:40:59;5.00;99.90
22319;DHT22;11327;52.334;9.506;2023-02-02T19:44:22;5.00;99.90
22319;DHT22;11327;52.334;9.506;2023-02-02T19:47:43;5.00;99.90
22319;DHT22;11327;52.334;9.506;2023-02-02T19:51:22;5.00;99.90
22319;DHT22;11327;52.334;9.506;2023-02-02T19:54:34;5.00;99.90
22319;DHT22;11327;52.334;9.506;2023-02-02T19:58:16;5.10;99.90
22319;DHT22;11327;52.334;9.506;2023-02-02T20:01:36;5.10;99.90
22319;DHT22;11327;52.334;9.506;2023-02-02T20:05:19;5.10;99.90
22319;DHT22;11327;52.334;9.506;2023-02-02T20:08:41;5.10;99.90
22319;DHT22;11327;52.334;9.506;2023-02-02T20:12:17;5.10;99.90
22319;DHT22;11327;52.334;9.506;2023-02-02T20:15:37;5.00;99.90
22319;DHT22;11327;52.334;9.506;2023-02-02T20:18:58;5.00;99.90
22319;DHT22;11327;52.334;9.506;2023-02-02T20:22:25;5.00;99.90
22319;DHT22;11327;52.334;9.506;2023-02-02T20:25:44;5.00;99.90
22319;DHT22;11327;52.334;9.506;2023-02-02T20:29:15;5.00;99.90
22319;DHT22;11327;52.334;9.506;2023-02-02T20:32:40;5.00;99.90
22319;DHT22;11327;52.334;9.506;2023-02-02T20:36:13;5.00;99.90
22319;DHT22;11327;52.334;9.506;2023-02-02T20:42:56;4.90;99.90
22319;DHT22;11327;52.334;9.506;2023-02-02T20:46:17;5.00;99.90
22319;DHT22;11327;52.334;9.506;2023-02-02T20:49:38;5.00;99.90
22319;DHT22;11327;52.334;9.506;2023-02-02T20:52:59;5.00;99.90
22319;DHT22;11327;52.334;9.506;2023-02-02T20:56:21;5.10;99.90
22319;DHT22;11327;52.334;9.506;2023-02-02T20:59:42;5.10;99.90
22319;DHT22;11327;52.334;9.506;2023-02-02T21:03:03;5.10;99.90
22319;DHT22;11327;52.334;9.506;2023-02-02T21:06:24;5.20;99.90
22319;DHT22;11327;52.334;9.506;2023-02-02T21:09:46;5.30;99.90
22319;DHT22;11327;52.334;9.506;2023-02-02T21:13:07;5.30;99.90
22319;DHT22;11327;52.334;9.506;2023-02-02T21:16:28;5.30;99.90
22319;DHT22;11327;52.334;9.506;2023-02-02T21:19:48;5.40;99.90
22319;DHT22;11327;52.334;9.506;2023-02-02T21:23:09;5.40;99.90
22319;DHT22;11327;52.334;9.506;2023-02-02T21:26:30;5.40;99.90
22319;DHT22;11327;52.334;9.506;2023-02-02T21:29:50;5.50;99.90
22319;DHT22;11327;52.334;9.506;2023-02-02T21:33:11;5.60;99.90
22319;DHT22;11327;52.334;9.506;2023-02-02T21:36:37;5.60;99.90
22319;DHT22;11327;52.334;9.506;2023-02-02T21:39:58;5.70;99.90
22319;DHT22;11327;52.334;9.506;2023-02-02T21:43:19;5.80;99.90
22319;DHT22;11327;52.334;9.506;2023-02-02T21:46:40;6.00;99.90
22319;DHT22;11327;52.334;9.506;2023-02-02T21:53:38;6.20;99.90
22319;DHT22;11327;52.334;9.506;2023-02-02T21:56:58;6.30;99.90
22319;DHT22;11327;52.334;9.506;2023-02-02T22:00:31;6.50;99.90
22319;DHT22;11327;52.334;9.506;2023-02-02T22:03:50;6.60;99.90
22319;DHT22;11327;52.334;9.506;2023-02-02T22:07:13;6.70;99.90
22319;DHT22;11327;52.334;9.506;2023-02-02T22:10:40;6.80;99.90
22319;DHT22;11327;52.334;9.506;2023-02-02T22:14:20;6.90;99.90
22319;DHT22;11327;52.334;9.506;2023-02-02T22:17:41;7.00;99.90
22319;DHT22;11327;52.334;9.506;2023-02-02T22:21:05;7.10;99.90
22319;DHT22;11327;52.334;9.506;2023-02-02T22:24:25;7.20;99.90
22319;DHT22;11327;52.334;9.506;2023-02-02T22:27:51;7.30;99.90
22319;DHT22;11327;52.334;9.506;2023-02-02T22:31:12;7.30;99.90
22319;DHT22;11327;52.334;9.506;2023-02-02T22:34:33;7.30;99.90
22319;DHT22;11327;52.334;9.506;2023-02-02T22:37:54;7.30;99.90
22319;DHT22;11327;52.334;9.506;2023-02-02T22:41:15;7.30;99.90
22319;DHT22;11327;52.334;9.506;2023-02-02T22:44:35;7.40;99.90
22319;DHT22;11327;52.334;9.506;2023-02-02T22:47:56;7.50;99.90
22319;DHT22;11327;52.334;9.506;2023-02-02T22:51:17;7.50;99.90
22319;DHT22;11327;52.334;9.506;2023-02-02T22:54:38;7.60;99.90
22319;DHT22;11327;52.334;9.506;2023-02-02T22:57:58;7.60;99.90
22319;DHT22;11327;52.334;9.506;2023-02-02T23:01:19;7.60;99.90
22319;DHT22;11327;52.334;9.506;2023-02-02T23:04:40;7.60;99.90
22319;DHT22;11327;52.334;9.506;2023-02-02T23:08:00;7.70;99.90
22319;DHT22;11327;52.334;9.506;2023-02-02T23:11:21;7.70;99.90
22319;DHT22;11327;52.334;9.506;2023-02-02T23:14:42;7.70;99.90
22319;DHT22;11327;52.334;9.506;2023-02-02T23:18:03;7.80;99.90
22319;DHT22;11327;52.334;9.506;2023-02-02T23:21:24;7.80;99.90
22319;DHT22;11327;52.334;9.506;2023-02-02T23:24:45;7.80;99.90
22319;DHT22;11327;52.334;9.506;2023-02-02T23:28:05;7.80;99.90